sensor_id;sensor_type;location;lat;lon;timestamp;P1;durP1;ratioP1;P2;durP2;ratioP2
80854;SDS011;70272;49.222;-122.892;2023-11-22T00:01:34;3.88;;;2.47;;
80854;SDS011;70272;49.222;-122.892;2023-11-22T00:04:00;5.75;;;2.83;;
80854;SDS011;70272;49.222;-122.892;2023-11-22T00:06:26;2.95;;;2.63;;
80854;SDS011;70272;49.222;-122.892;2023-11-22T00:08:55;7.38;;;3.47;;
80854;SDS011;70272;49.222;-122.892;2023-11-22T00:11:21;6.03;;;3.50;;
80854;SDS011;70272;49.222;-122.892;2023-11-22T00:13:48;5.07;;;2.50;;
80854;SDS011;70272;49.222;-122.892;2023-11-22T00:16:14;4.35;;;3.13;;
80854;SDS011;70272;49.222;-122.892;2023-11-22T00:18:41;5.93;;;2.55;;
80854;SDS011;70272;49.222;-122.892;2023-11-22T00:21:07;4.97;;;2.20;;
80854;SDS011;70272;49.222;-122.892;2023-11-22T00:23:35;6.65;;;3.42;;
80854;SDS011;70272;49.222;-122.892;2023-11-22T00:26:01;18.60;;;10.60;;
80854;SDS011;70272;49.222;-122.892;2023-11-22T00:28:28;8.50;;;4.40;;
80854;SDS011;70272;49.222;-122.892;2023-11-22T00:30:54;8.18;;;4.97;;
80854;SDS011;70272;49.222;-122.892;2023-11-22T00:33:20;5.80;;;3.50;;
80854;SDS011;70272;49.222;-122.892;2023-11-22T00:35:46;5.40;;;2.70;;
80854;SDS011;70272;49.222;-122.892;2023-11-22T00:38:13;6.85;;;3.20;;
80854;SDS011;70272;49.222;-122.892;2023-11-22T00:40:39;4.72;;;2.92;;
80854;SDS011;70272;49.222;-122.892;2023-11-22T00:43:05;7.82;;;2.90;;
80854;SDS011;70272;49.222;-122.892;2023-11-22T00:45:31;8.48;;;2.70;;
80854;SDS011;70272;49.222;-122.892;2023-11-22T00:47:59;3.65;;;2.45;;
80854;SDS011;70272;49.222;-122.892;2023-11-22T00:50:25;4.38;;;2.38;;
80854;SDS011;70272;49.222;-122.892;2023-11-22T00:52:51;6.43;;;3.15;;
80854;SDS011;70272;49.222;-122.892;2023-11-22T00:55:17;6.25;;;3.17;;
80854;SDS011;70272;49.222;-122.892;2023-11-22T00:57:44;9.10;;;3.90;;
80854;SDS011;70272;49.222;-122.892;2023-11-22T01:00:10;4.63;;;3.38;;
80854;SDS011;70272;49.222;-122.892;2023-11-22T01:02:38;6.55;;;3.63;;
80854;SDS011;70272;49.222;-122.892;2023-11-22T01:05:05;5.88;;;3.03;;
80854;SDS011;70272;49.222;-122.892;2023-11-22T01:07:41;7.18;;;3.72;;
80854;SDS011;70272;49.222;-122.892;2023-11-22T01:10:07;4.72;;;3.00;;
80854;SDS011;70272;49.222;-122.892;2023-11-22T01:12:34;6.63;;;3.42;;
80854;SDS011;70272;49.222;-122.892;2023-11-22T01:15:00;8.00;;;2.92;;
80854;SDS011;70272;49.222;-122.892;2023-11-22T01:17:26;8.00;;;4.20;;
80854;SDS011;70272;49.222;-122.892;2023-11-22T01:19:52;5.95;;;3.30;;
80854;SDS011;70272;49.222;-122.892;2023-11-22T01:22:18;8.30;;;5.10;;
80854;SDS011;70272;49.222;-122.892;2023-11-22T01:24:45;7.95;;;5.15;;
80854;SDS011;70272;49.222;-122.892;2023-11-22T01:27:11;14.55;;;8.85;;
80854;SDS011;70272;49.222;-122.892;2023-11-22T01:29:37;6.55;;;3.75;;
80854;SDS011;70272;49.222;-122.892;2023-11-22T01:32:04;4.07;;;2.33;;
80854;SDS011;70272;49.222;-122.892;2023-11-22T01:34:30;3.13;;;2.25;;
80854;SDS011;70272;49.222;-122.892;2023-11-22T01:36:56;3.55;;;2.00;;
80854;SDS011;70272;49.222;-122.892;2023-11-22T01:39:23;2.03;;;1.58;;
80854;SDS011;70272;49.222;-122.892;2023-11-22T01:41:49;2.90;;;1.70;;
80854;SDS011;70272;49.222;-122.892;2023-11-22T01:44:15;2.47;;;1.80;;
80854;SDS011;70272;49.222;-122.892;2023-11-22T01:46:43;4.03;;;2.33;;
80854;SDS011;70272;49.222;-122.892;2023-11-22T01:49:10;4.15;;;2.25;;
80854;SDS011;70272;49.222;-122.892;2023-11-22T01:51:39;5.20;;;2.35;;
80854;SDS011;70272;49.222;-122.892;2023-11-22T01:54:06;3.63;;;2.47;;
80854;SDS011;70272;49.222;-122.892;2023-11-22T01:56:35;2.88;;;1.73;;
80854;SDS011;70272;49.222;-122.892;2023-11-22T01:59:04;3.03;;;2.00;;
80854;SDS011;70272;49.222;-122.892;2023-11-22T02:01:30;2.85;;;2.10;;
80854;SDS011;70272;49.222;-122.892;2023-11-22T02:03:57;3.38;;;1.95;;
80854;SDS011;70272;49.222;-122.892;2023-11-22T02:06:24;3.35;;;1.70;;
80854;SDS011;70272;49.222;-122.892;2023-11-22T02:08:51;2.92;;;1.75;;
80854;SDS011;70272;49.222;-122.892;2023-11-22T02:11:18;2.33;;;1.63;;
80854;SDS011;70272;49.222;-122.892;2023-11-22T02:13:50;2.67;;;1.70;;
80854;SDS011;70272;49.222;-122.892;2023-11-22T02:16:19;2.88;;;1.95;;
80854;SDS011;70272;49.222;-122.892;2023-11-22T02:18:46;3.67;;;2.05;;
80854;SDS011;70272;49.222;-122.892;2023-11-22T02:21:13;3.25;;;1.95;;
80854;SDS011;70272;49.222;-122.892;2023-11-22T02:23:41;3.92;;;1.92;;
80854;SDS011;70272;49.222;-122.892;2023-11-22T02:26:07;3.90;;;2.00;;
80854;SDS011;70272;49.222;-122.892;2023-11-22T02:28:34;3.47;;;1.85;;
80854;SDS011;70272;49.222;-122.892;2023-11-22T02:31:00;3.40;;;1.70;;
80854;SDS011;70272;49.222;-122.892;2023-11-22T02:33:28;3.42;;;1.58;;
80854;SDS011;70272;49.222;-122.892;2023-11-22T02:35:54;2.88;;;1.67;;
80854;SDS011;70272;49.222;-122.892;2023-11-22T02:38:22;5.40;;;2.70;;
80854;SDS011;70272;49.222;-122.892;2023-11-22T02:40:48;4.80;;;2.35;;
80854;SDS011;70272;49.222;-122.892;2023-11-22T02:43:15;4.80;;;2.38;;
80854;SDS011;70272;49.222;-122.892;2023-11-22T02:45:42;5.32;;;2.65;;
80854;SDS011;70272;49.222;-122.892;2023-11-22T02:48:09;5.47;;;2.70;;
80854;SDS011;70272;49.222;-122.892;2023-11-22T02:50:35;6.63;;;2.75;;
80854;SDS011;70272;49.222;-122.892;2023-11-22T02:53:04;5.97;;;2.58;;
80854;SDS011;70272;49.222;-122.892;2023-11-22T02:55:31;4.88;;;2.55;;
80854;SDS011;70272;49.222;-122.892;2023-11-22T02:57:57;5.97;;;2.50;;
80854;SDS011;70272;49.222;-122.892;2023-11-22T03:00:23;6.25;;;2.47;;
80854;SDS011;70272;49.222;-122.892;2023-11-22T03:02:50;3.13;;;1.85;;
80854;SDS011;70272;49.222;-122.892;2023-11-22T03:05:20;3.95;;;2.03;;
80854;SDS011;70272;49.222;-122.892;2023-11-22T03:07:46;5.05;;;2.38;;
80854;SDS011;70272;49.222;-122.892;2023-11-22T03:10:13;4.30;;;2.50;;
80854;SDS011;70272;49.222;-122.892;2023-11-22T03:12:39;6.03;;;2.10;;
80854;SDS011;70272;49.222;-122.892;2023-11-22T03:15:05;5.05;;;2.40;;
80854;SDS011;70272;49.222;-122.892;2023-11-22T03:17:32;4.38;;;2.10;;
80854;SDS011;70272;49.222;-122.892;2023-11-22T03:19:58;4.55;;;2.20;;
80854;SDS011;70272;49.222;-122.892;2023-11-22T03:22:26;3.60;;;2.10;;
80854;SDS011;70272;49.222;-122.892;2023-11-22T03:24:56;3.53;;;2.40;;
80854;SDS011;70272;49.222;-122.892;2023-11-22T03:27:23;4.80;;;1.92;;
80854;SDS011;70272;49.222;-122.892;2023-11-22T03:29:50;3.85;;;2.05;;
80854;SDS011;70272;49.222;-122.892;2023-11-22T03:32:17;5.07;;;2.05;;
80854;SDS011;70272;49.222;-122.892;2023-11-22T03:34:43;2.90;;;1.80;;
80854;SDS011;70272;49.222;-122.892;2023-11-22T03:37:09;3.78;;;1.60;;
80854;SDS011;70272;49.222;-122.892;2023-11-22T03:39:36;2.80;;;1.60;;
80854;SDS011;70272;49.222;-122.892;2023-11-22T03:42:03;2.08;;;1.75;;
80854;SDS011;70272;49.222;-122.892;2023-11-22T03:44:30;2.90;;;1.50;;
80854;SDS011;70272;49.222;-122.892;2023-11-22T03:46:56;3.20;;;1.80;;
80854;SDS011;70272;49.222;-122.892;2023-11-22T03:49:22;4.60;;;1.80;;
80854;SDS011;70272;49.222;-122.892;2023-11-22T03:51:48;3.33;;;1.92;;
80854;SDS011;70272;49.222;-122.892;2023-11-22T03:54:15;3.15;;;1.65;;
80854;SDS011;70272;49.222;-122.892;2023-11-22T03:56:41;4.43;;;1.67;;
80854;SDS011;70272;49.222;-122.892;2023-11-22T03:59:07;3.40;;;1.75;;
80854;SDS011;70272;49.222;-122.892;2023-11-22T04:01:33;3.25;;;1.90;;
80854;SDS011;70272;49.222;-122.892;2023-11-22T04:04:00;4.43;;;2.35;;
80854;SDS011;70272;49.222;-122.892;2023-11-22T04:06:26;3.08;;;2.05;;
80854;SDS011;70272;49.222;-122.892;2023-11-22T04:08:53;5.32;;;2.10;;
80854;SDS011;70272;49.222;-122.892;2023-11-22T04:11:19;3.67;;;2.28;;
80854;SDS011;70272;49.222;-122.892;2023-11-22T04:13:46;2.53;;;1.83;;
80854;SDS011;70272;49.222;-122.892;2023-11-22T04:16:13;2.95;;;1.75;;
80854;SDS011;70272;49.222;-122.892;2023-11-22T04:18:40;4.03;;;2.10;;
80854;SDS011;70272;49.222;-122.892;2023-11-22T04:21:07;2.88;;;1.70;;
80854;SDS011;70272;49.222;-122.892;2023-11-22T04:23:34;2.50;;;1.77;;
80854;SDS011;70272;49.222;-122.892;2023-11-22T04:26:01;3.22;;;1.70;;
80854;SDS011;70272;49.222;-122.892;2023-11-22T04:28:28;5.05;;;2.05;;
80854;SDS011;70272;49.222;-122.892;2023-11-22T04:30:57;2.67;;;1.98;;
80854;SDS011;70272;49.222;-122.892;2023-11-22T04:33:24;3.38;;;1.83;;
80854;SDS011;70272;49.222;-122.892;2023-11-22T04:35:53;3.80;;;1.88;;
80854;SDS011;70272;49.222;-122.892;2023-11-22T04:38:20;3.67;;;1.80;;
80854;SDS011;70272;49.222;-122.892;2023-11-22T04:40:46;2.08;;;1.38;;
80854;SDS011;70272;49.222;-122.892;2023-11-22T04:43:13;2.63;;;1.60;;
80854;SDS011;70272;49.222;-122.892;2023-11-22T04:45:39;2.85;;;1.67;;
80854;SDS011;70272;49.222;-122.892;2023-11-22T04:48:05;4.65;;;1.90;;
80854;SDS011;70272;49.222;-122.892;2023-11-22T04:50:32;2.95;;;1.60;;
80854;SDS011;70272;49.222;-122.892;2023-11-22T04:52:58;2.42;;;1.70;;
80854;SDS011;70272;49.222;-122.892;2023-11-22T04:55:26;2.13;;;1.67;;
80854;SDS011;70272;49.222;-122.892;2023-11-22T04:57:54;2.72;;;1.55;;
80854;SDS011;70272;49.222;-122.892;2023-11-22T05:00:23;1.85;;;1.45;;
80854;SDS011;70272;49.222;-122.892;2023-11-22T05:02:50;5.32;;;1.80;;
80854;SDS011;70272;49.222;-122.892;2023-11-22T05:05:16;3.83;;;1.92;;
80854;SDS011;70272;49.222;-122.892;2023-11-22T05:07:42;3.05;;;1.75;;
80854;SDS011;70272;49.222;-122.892;2023-11-22T05:10:12;2.30;;;2.00;;
80854;SDS011;70272;49.222;-122.892;2023-11-22T05:12:39;2.92;;;2.08;;
80854;SDS011;70272;49.222;-122.892;2023-11-22T05:15:06;3.05;;;2.10;;
80854;SDS011;70272;49.222;-122.892;2023-11-22T05:17:33;1.92;;;1.60;;
80854;SDS011;70272;49.222;-122.892;2023-11-22T05:20:00;2.75;;;1.95;;
80854;SDS011;70272;49.222;-122.892;2023-11-22T05:22:27;4.70;;;2.00;;
80854;SDS011;70272;49.222;-122.892;2023-11-22T05:24:53;3.22;;;1.90;;
80854;SDS011;70272;49.222;-122.892;2023-11-22T05:27:19;2.88;;;1.88;;
80854;SDS011;70272;49.222;-122.892;2023-11-22T05:29:46;18.77;;;11.38;;
80854;SDS011;70272;49.222;-122.892;2023-11-22T05:32:12;4.93;;;2.30;;
80854;SDS011;70272;49.222;-122.892;2023-11-22T05:34:38;3.85;;;2.00;;
80854;SDS011;70272;49.222;-122.892;2023-11-22T05:37:06;3.65;;;2.10;;
80854;SDS011;70272;49.222;-122.892;2023-11-22T05:39:32;6.43;;;3.60;;
80854;SDS011;70272;49.222;-122.892;2023-11-22T05:41:58;5.07;;;2.83;;
80854;SDS011;70272;49.222;-122.892;2023-11-22T05:44:25;4.18;;;2.65;;
80854;SDS011;70272;49.222;-122.892;2023-11-22T05:46:52;4.53;;;2.40;;
80854;SDS011;70272;49.222;-122.892;2023-11-22T05:49:19;4.85;;;2.40;;
80854;SDS011;70272;49.222;-122.892;2023-11-22T05:51:46;4.45;;;3.05;;
80854;SDS011;70272;49.222;-122.892;2023-11-22T05:54:12;3.60;;;2.15;;
80854;SDS011;70272;49.222;-122.892;2023-11-22T05:56:38;3.05;;;2.17;;
80854;SDS011;70272;49.222;-122.892;2023-11-22T05:59:05;3.95;;;2.10;;
80854;SDS011;70272;49.222;-122.892;2023-11-22T06:01:31;3.83;;;2.20;;
80854;SDS011;70272;49.222;-122.892;2023-11-22T06:03:59;3.50;;;1.90;;
80854;SDS011;70272;49.222;-122.892;2023-11-22T06:06:25;5.10;;;2.10;;
80854;SDS011;70272;49.222;-122.892;2023-11-22T06:08:52;4.32;;;2.42;;
80854;SDS011;70272;49.222;-122.892;2023-11-22T06:11:18;3.13;;;2.10;;
80854;SDS011;70272;49.222;-122.892;2023-11-22T06:13:45;3.20;;;2.03;;
80854;SDS011;70272;49.222;-122.892;2023-11-22T06:16:12;4.63;;;2.67;;
80854;SDS011;70272;49.222;-122.892;2023-11-22T06:18:39;4.00;;;2.88;;
80854;SDS011;70272;49.222;-122.892;2023-11-22T06:21:09;3.28;;;2.10;;
80854;SDS011;70272;49.222;-122.892;2023-11-22T06:23:36;2.50;;;2.05;;
80854;SDS011;70272;49.222;-122.892;2023-11-22T06:26:02;3.22;;;1.83;;
80854;SDS011;70272;49.222;-122.892;2023-11-22T06:28:28;4.65;;;2.10;;
80854;SDS011;70272;49.222;-122.892;2023-11-22T06:30:55;3.40;;;1.98;;
80854;SDS011;70272;49.222;-122.892;2023-11-22T06:33:21;3.40;;;2.10;;
80854;SDS011;70272;49.222;-122.892;2023-11-22T06:35:47;4.45;;;2.70;;
80854;SDS011;70272;49.222;-122.892;2023-11-22T06:38:14;4.18;;;2.30;;
80854;SDS011;70272;49.222;-122.892;2023-11-22T06:40:40;4.57;;;2.35;;
80854;SDS011;70272;49.222;-122.892;2023-11-22T06:43:06;3.95;;;2.15;;
80854;SDS011;70272;49.222;-122.892;2023-11-22T06:45:32;5.43;;;2.35;;
80854;SDS011;70272;49.222;-122.892;2023-11-22T06:47:59;3.60;;;1.98;;
80854;SDS011;70272;49.222;-122.892;2023-11-22T06:50:25;3.70;;;2.20;;
80854;SDS011;70272;49.222;-122.892;2023-11-22T06:52:52;3.65;;;2.05;;
80854;SDS011;70272;49.222;-122.892;2023-11-22T06:55:18;4.18;;;3.00;;
80854;SDS011;70272;49.222;-122.892;2023-11-22T06:57:44;3.67;;;2.10;;
80854;SDS011;70272;49.222;-122.892;2023-11-22T07:00:11;2.80;;;2.17;;
80854;SDS011;70272;49.222;-122.892;2023-11-22T07:02:41;2.95;;;2.15;;
80854;SDS011;70272;49.222;-122.892;2023-11-22T07:05:08;4.32;;;2.30;;
80854;SDS011;70272;49.222;-122.892;2023-11-22T07:07:34;3.55;;;2.08;;
80854;SDS011;70272;49.222;-122.892;2023-11-22T07:10:01;3.88;;;2.30;;
80854;SDS011;70272;49.222;-122.892;2023-11-22T07:12:31;5.15;;;2.72;;
80854;SDS011;70272;49.222;-122.892;2023-11-22T07:15:00;3.35;;;2.55;;
80854;SDS011;70272;49.222;-122.892;2023-11-22T07:17:26;3.80;;;2.55;;
80854;SDS011;70272;49.222;-122.892;2023-11-22T07:19:54;3.05;;;1.95;;
80854;SDS011;70272;49.222;-122.892;2023-11-22T07:22:20;4.05;;;2.20;;
80854;SDS011;70272;49.222;-122.892;2023-11-22T07:24:48;3.28;;;2.03;;
80854;SDS011;70272;49.222;-122.892;2023-11-22T07:27:19;4.22;;;2.20;;
80854;SDS011;70272;49.222;-122.892;2023-11-22T07:29:46;3.92;;;2.40;;
80854;SDS011;70272;49.222;-122.892;2023-11-22T07:32:12;3.25;;;2.03;;
80854;SDS011;70272;49.222;-122.892;2023-11-22T07:34:39;3.80;;;2.30;;
80854;SDS011;70272;49.222;-122.892;2023-11-22T07:37:06;3.67;;;1.70;;
80854;SDS011;70272;49.222;-122.892;2023-11-22T07:39:33;3.85;;;2.00;;
80854;SDS011;70272;49.222;-122.892;2023-11-22T07:42:01;3.10;;;2.00;;
80854;SDS011;70272;49.222;-122.892;2023-11-22T07:44:28;2.45;;;1.77;;
80854;SDS011;70272;49.222;-122.892;2023-11-22T07:46:58;2.60;;;1.90;;
80854;SDS011;70272;49.222;-122.892;2023-11-22T07:49:25;2.58;;;1.88;;
80854;SDS011;70272;49.222;-122.892;2023-11-22T07:51:51;2.72;;;2.08;;
80854;SDS011;70272;49.222;-122.892;2023-11-22T07:54:21;2.65;;;2.03;;
80854;SDS011;70272;49.222;-122.892;2023-11-22T07:56:48;3.40;;;2.30;;
80854;SDS011;70272;49.222;-122.892;2023-11-22T07:59:15;4.43;;;2.17;;
80854;SDS011;70272;49.222;-122.892;2023-11-22T08:01:44;3.42;;;2.30;;
80854;SDS011;70272;49.222;-122.892;2023-11-22T08:04:13;3.15;;;1.90;;
80854;SDS011;70272;49.222;-122.892;2023-11-22T08:06:40;3.35;;;2.58;;
80854;SDS011;70272;49.222;-122.892;2023-11-22T08:09:07;3.47;;;2.38;;
80854;SDS011;70272;49.222;-122.892;2023-11-22T08:11:35;3.28;;;2.10;;
80854;SDS011;70272;49.222;-122.892;2023-11-22T08:14:02;2.92;;;2.35;;
80854;SDS011;70272;49.222;-122.892;2023-11-22T08:16:29;4.57;;;2.10;;
80854;SDS011;70272;49.222;-122.892;2023-11-22T08:18:55;2.50;;;2.00;;
80854;SDS011;70272;49.222;-122.892;2023-11-22T08:21:22;3.92;;;2.40;;
80854;SDS011;70272;49.222;-122.892;2023-11-22T08:23:49;2.72;;;1.60;;
80854;SDS011;70272;49.222;-122.892;2023-11-22T08:26:15;2.58;;;1.73;;
80854;SDS011;70272;49.222;-122.892;2023-11-22T08:28:41;3.42;;;2.03;;
80854;SDS011;70272;49.222;-122.892;2023-11-22T08:31:08;3.28;;;2.00;;
80854;SDS011;70272;49.222;-122.892;2023-11-22T08:33:37;2.42;;;1.85;;
80854;SDS011;70272;49.222;-122.892;2023-11-22T08:36:05;2.58;;;2.00;;
80854;SDS011;70272;49.222;-122.892;2023-11-22T08:38:35;1.92;;;1.45;;
80854;SDS011;70272;49.222;-122.892;2023-11-22T08:41:02;2.60;;;1.55;;
80854;SDS011;70272;49.222;-122.892;2023-11-22T08:43:31;3.42;;;1.90;;
80854;SDS011;70272;49.222;-122.892;2023-11-22T08:45:58;1.83;;;1.60;;
80854;SDS011;70272;49.222;-122.892;2023-11-22T08:48:24;2.83;;;1.60;;
80854;SDS011;70272;49.222;-122.892;2023-11-22T08:50:51;1.70;;;1.45;;
80854;SDS011;70272;49.222;-122.892;2023-11-22T08:53:19;2.40;;;1.60;;
80854;SDS011;70272;49.222;-122.892;2023-11-22T08:55:48;3.28;;;1.80;;
80854;SDS011;70272;49.222;-122.892;2023-11-22T08:58:14;2.13;;;1.50;;
80854;SDS011;70272;49.222;-122.892;2023-11-22T09:00:41;2.22;;;1.60;;
80854;SDS011;70272;49.222;-122.892;2023-11-22T09:03:08;2.45;;;2.00;;
80854;SDS011;70272;49.222;-122.892;2023-11-22T09:05:36;2.55;;;1.70;;
80854;SDS011;70272;49.222;-122.892;2023-11-22T09:08:02;4.03;;;1.55;;
80854;SDS011;70272;49.222;-122.892;2023-11-22T09:10:29;2.00;;;1.42;;
80854;SDS011;70272;49.222;-122.892;2023-11-22T09:12:55;2.03;;;1.50;;
80854;SDS011;70272;49.222;-122.892;2023-11-22T09:15:24;3.13;;;1.98;;
80854;SDS011;70272;49.222;-122.892;2023-11-22T09:17:54;2.22;;;1.65;;
80854;SDS011;70272;49.222;-122.892;2023-11-22T09:20:21;3.40;;;2.00;;
80854;SDS011;70272;49.222;-122.892;2023-11-22T09:22:49;3.13;;;1.73;;
80854;SDS011;70272;49.222;-122.892;2023-11-22T09:25:17;3.00;;;1.70;;
80854;SDS011;70272;49.222;-122.892;2023-11-22T09:27:45;2.38;;;1.60;;
80854;SDS011;70272;49.222;-122.892;2023-11-22T09:30:16;2.42;;;1.85;;
80854;SDS011;70272;49.222;-122.892;2023-11-22T09:33:05;3.42;;;2.08;;
80854;SDS011;70272;49.222;-122.892;2023-11-22T09:35:33;2.00;;;1.67;;
80854;SDS011;70272;49.222;-122.892;2023-11-22T09:38:00;3.20;;;2.10;;
80854;SDS011;70272;49.222;-122.892;2023-11-22T09:40:28;3.90;;;2.22;;
80854;SDS011;70272;49.222;-122.892;2023-11-22T09:42:57;3.08;;;2.03;;
80854;SDS011;70272;49.222;-122.892;2023-11-22T09:45:25;2.83;;;2.03;;
80854;SDS011;70272;49.222;-122.892;2023-11-22T09:47:52;3.30;;;2.38;;
80854;SDS011;70272;49.222;-122.892;2023-11-22T09:50:30;2.53;;;1.90;;
80854;SDS011;70272;49.222;-122.892;2023-11-22T09:53:05;2.30;;;1.60;;
80854;SDS011;70272;49.222;-122.892;2023-11-22T09:55:57;2.58;;;1.95;;
80854;SDS011;70272;49.222;-122.892;2023-11-22T09:58:24;1.85;;;1.60;;
80854;SDS011;70272;49.222;-122.892;2023-11-22T10:00:50;2.55;;;1.80;;
80854;SDS011;70272;49.222;-122.892;2023-11-22T10:03:17;2.20;;;1.88;;
80854;SDS011;70272;49.222;-122.892;2023-11-22T10:05:46;3.17;;;1.88;;
80854;SDS011;70272;49.222;-122.892;2023-11-22T10:08:12;3.70;;;2.20;;
80854;SDS011;70272;49.222;-122.892;2023-11-22T10:10:39;2.92;;;1.92;;
80854;SDS011;70272;49.222;-122.892;2023-11-22T10:13:07;3.80;;;2.40;;
80854;SDS011;70272;49.222;-122.892;2023-11-22T10:15:35;5.15;;;3.10;;
80854;SDS011;70272;49.222;-122.892;2023-11-22T10:18:01;4.25;;;2.97;;
80854;SDS011;70272;49.222;-122.892;2023-11-22T10:20:37;5.38;;;3.03;;
80854;SDS011;70272;49.222;-122.892;2023-11-22T10:23:10;5.57;;;3.03;;
80854;SDS011;70272;49.222;-122.892;2023-11-22T10:25:45;3.97;;;2.75;;
80854;SDS011;70272;49.222;-122.892;2023-11-22T10:28:19;4.70;;;3.47;;
80854;SDS011;70272;49.222;-122.892;2023-11-22T10:30:48;5.95;;;3.40;;
80854;SDS011;70272;49.222;-122.892;2023-11-22T10:33:17;5.85;;;3.40;;
80854;SDS011;70272;49.222;-122.892;2023-11-22T10:35:49;6.63;;;3.88;;
80854;SDS011;70272;49.222;-122.892;2023-11-22T10:38:18;7.40;;;4.03;;
80854;SDS011;70272;49.222;-122.892;2023-11-22T10:40:46;7.43;;;4.07;;
80854;SDS011;70272;49.222;-122.892;2023-11-22T10:43:13;9.20;;;4.05;;
80854;SDS011;70272;49.222;-122.892;2023-11-22T10:45:41;7.78;;;4.32;;
80854;SDS011;70272;49.222;-122.892;2023-11-22T10:48:16;8.77;;;4.20;;
80854;SDS011;70272;49.222;-122.892;2023-11-22T10:50:46;13.80;;;6.43;;
80854;SDS011;70272;49.222;-122.892;2023-11-22T10:53:15;16.55;;;6.60;;
80854;SDS011;70272;49.222;-122.892;2023-11-22T10:55:44;13.60;;;7.15;;
80854;SDS011;70272;49.222;-122.892;2023-11-22T10:58:12;15.85;;;6.97;;
80854;SDS011;70272;49.222;-122.892;2023-11-22T11:00:40;13.52;;;7.07;;
80854;SDS011;70272;49.222;-122.892;2023-11-22T11:03:11;11.43;;;5.80;;
80854;SDS011;70272;49.222;-122.892;2023-11-22T11:05:42;10.68;;;4.88;;
80854;SDS011;70272;49.222;-122.892;2023-11-22T11:08:30;9.48;;;4.15;;
80854;SDS011;70272;49.222;-122.892;2023-11-22T11:10:56;8.07;;;4.00;;
80854;SDS011;70272;49.222;-122.892;2023-11-22T11:13:23;8.15;;;4.35;;
80854;SDS011;70272;49.222;-122.892;2023-11-22T11:15:52;7.22;;;3.78;;
80854;SDS011;70272;49.222;-122.892;2023-11-22T11:18:19;9.38;;;3.55;;
80854;SDS011;70272;49.222;-122.892;2023-11-22T11:23:25;5.82;;;2.65;;
80854;SDS011;70272;49.222;-122.892;2023-11-22T11:25:53;4.65;;;3.00;;
80854;SDS011;70272;49.222;-122.892;2023-11-22T11:28:21;5.13;;;3.25;;
80854;SDS011;70272;49.222;-122.892;2023-11-22T11:30:48;6.03;;;3.30;;
80854;SDS011;70272;49.222;-122.892;2023-11-22T11:33:33;8.32;;;4.15;;
80854;SDS011;70272;49.222;-122.892;2023-11-22T11:36:03;5.20;;;3.10;;
80854;SDS011;70272;49.222;-122.892;2023-11-22T11:38:31;4.93;;;2.78;;
80854;SDS011;70272;49.222;-122.892;2023-11-22T11:41:23;6.43;;;3.45;;
80854;SDS011;70272;49.222;-122.892;2023-11-22T11:43:48;5.45;;;3.35;;
80854;SDS011;70272;49.222;-122.892;2023-11-22T11:46:15;4.40;;;3.08;;
80854;SDS011;70272;49.222;-122.892;2023-11-22T11:48:48;5.43;;;3.20;;
80854;SDS011;70272;49.222;-122.892;2023-11-22T11:51:25;6.05;;;3.35;;
80854;SDS011;70272;49.222;-122.892;2023-11-22T11:53:53;7.35;;;3.67;;
80854;SDS011;70272;49.222;-122.892;2023-11-22T11:56:20;5.60;;;3.70;;
80854;SDS011;70272;49.222;-122.892;2023-11-22T11:58:47;5.57;;;4.35;;
80854;SDS011;70272;49.222;-122.892;2023-11-22T12:01:18;5.57;;;4.35;;
80854;SDS011;70272;49.222;-122.892;2023-11-22T12:03:48;7.35;;;4.18;;
80854;SDS011;70272;49.222;-122.892;2023-11-22T12:06:15;7.50;;;4.18;;
80854;SDS011;70272;49.222;-122.892;2023-11-22T12:08:45;7.70;;;4.30;;
80854;SDS011;70272;49.222;-122.892;2023-11-22T12:11:12;7.70;;;4.72;;
80854;SDS011;70272;49.222;-122.892;2023-11-22T12:13:41;9.27;;;4.47;;
80854;SDS011;70272;49.222;-122.892;2023-11-22T12:16:14;7.57;;;4.25;;
80854;SDS011;70272;49.222;-122.892;2023-11-22T12:18:48;7.75;;;4.68;;
80854;SDS011;70272;49.222;-122.892;2023-11-22T12:21:15;6.28;;;3.92;;
80854;SDS011;70272;49.222;-122.892;2023-11-22T12:23:43;5.90;;;3.85;;
80854;SDS011;70272;49.222;-122.892;2023-11-22T12:26:14;6.93;;;4.32;;
80854;SDS011;70272;49.222;-122.892;2023-11-22T12:28:45;4.82;;;2.95;;
80854;SDS011;70272;49.222;-122.892;2023-11-22T12:31:13;4.55;;;2.65;;
80854;SDS011;70272;49.222;-122.892;2023-11-22T12:33:41;4.22;;;2.45;;
80854;SDS011;70272;49.222;-122.892;2023-11-22T12:36:08;4.88;;;3.13;;
80854;SDS011;70272;49.222;-122.892;2023-11-22T12:38:36;3.65;;;2.50;;
80854;SDS011;70272;49.222;-122.892;2023-11-22T12:41:02;4.60;;;2.80;;
80854;SDS011;70272;49.222;-122.892;2023-11-22T12:43:31;3.55;;;2.25;;
80854;SDS011;70272;49.222;-122.892;2023-11-22T12:46:05;3.72;;;2.50;;
80854;SDS011;70272;49.222;-122.892;2023-11-22T12:48:41;3.45;;;2.30;;
80854;SDS011;70272;49.222;-122.892;2023-11-22T12:51:17;3.40;;;2.30;;
80854;SDS011;70272;49.222;-122.892;2023-11-22T12:53:48;3.97;;;2.22;;
80854;SDS011;70272;49.222;-122.892;2023-11-22T12:56:15;4.38;;;2.38;;
80854;SDS011;70272;49.222;-122.892;2023-11-22T12:58:42;4.00;;;2.05;;
80854;SDS011;70272;49.222;-122.892;2023-11-22T13:01:08;2.78;;;1.90;;
80854;SDS011;70272;49.222;-122.892;2023-11-22T13:03:35;2.88;;;2.00;;
80854;SDS011;70272;49.222;-122.892;2023-11-22T13:06:01;4.50;;;2.33;;
80854;SDS011;70272;49.222;-122.892;2023-11-22T13:08:27;3.70;;;2.45;;
80854;SDS011;70272;49.222;-122.892;2023-11-22T13:10:57;3.90;;;2.40;;
80854;SDS011;70272;49.222;-122.892;2023-11-22T13:13:25;2.97;;;2.10;;
80854;SDS011;70272;49.222;-122.892;2023-11-22T13:15:53;2.85;;;1.90;;
80854;SDS011;70272;49.222;-122.892;2023-11-22T13:18:22;3.10;;;1.98;;
80854;SDS011;70272;49.222;-122.892;2023-11-22T13:20:48;2.03;;;1.50;;
80854;SDS011;70272;49.222;-122.892;2023-11-22T13:23:15;2.00;;;1.55;;
80854;SDS011;70272;49.222;-122.892;2023-11-22T13:25:43;2.75;;;1.50;;
80854;SDS011;70272;49.222;-122.892;2023-11-22T13:28:12;2.15;;;1.50;;
80854;SDS011;70272;49.222;-122.892;2023-11-22T13:30:38;1.98;;;1.38;;
80854;SDS011;70272;49.222;-122.892;2023-11-22T13:33:05;2.17;;;1.52;;
80854;SDS011;70272;49.222;-122.892;2023-11-22T13:35:31;2.28;;;1.40;;
80854;SDS011;70272;49.222;-122.892;2023-11-22T13:38:02;2.25;;;1.40;;
80854;SDS011;70272;49.222;-122.892;2023-11-22T13:40:28;2.28;;;1.55;;
80854;SDS011;70272;49.222;-122.892;2023-11-22T13:42:58;2.17;;;1.50;;
80854;SDS011;70272;49.222;-122.892;2023-11-22T13:45:25;2.08;;;1.60;;
80854;SDS011;70272;49.222;-122.892;2023-11-22T13:47:52;2.20;;;1.70;;
80854;SDS011;70272;49.222;-122.892;2023-11-22T13:50:23;2.33;;;1.58;;
80854;SDS011;70272;49.222;-122.892;2023-11-22T13:52:55;2.58;;;1.70;;
80854;SDS011;70272;49.222;-122.892;2023-11-22T13:55:22;2.90;;;1.83;;
80854;SDS011;70272;49.222;-122.892;2023-11-22T13:57:50;2.80;;;1.88;;
80854;SDS011;70272;49.222;-122.892;2023-11-22T14:00:18;2.50;;;1.73;;
80854;SDS011;70272;49.222;-122.892;2023-11-22T14:02:51;3.10;;;2.03;;
80854;SDS011;70272;49.222;-122.892;2023-11-22T14:05:21;2.60;;;1.80;;
80854;SDS011;70272;49.222;-122.892;2023-11-22T14:07:52;3.20;;;1.88;;
80854;SDS011;70272;49.222;-122.892;2023-11-22T14:10:20;2.65;;;1.77;;
80854;SDS011;70272;49.222;-122.892;2023-11-22T14:12:48;2.58;;;2.13;;
80854;SDS011;70272;49.222;-122.892;2023-11-22T14:15:14;2.88;;;2.08;;